Time;durP1;ratioP1;P1;durP2;ratioP2;P2;SDS_P1;SDS_P2;PMS_P1;PMS_P2;Temp;Humidity;BMP_temperature;BMP_pressure;BME280_temperature;BME280_humidity;BME280_pressure;Samples;Min_cycle;Max_cycle;Signal;HPM_P1;HPM_P2
2024/01/31 00:00:07;;;;;;;2.13;0.40;;;5.30;99.90;;;;;;5030393;28;20041;-35
2024/01/31 00:02:33;;;;;;;4.18;0.50;;;5.40;99.90;;;;;;5026613;28;20124;-36
2024/01/31 00:04:59;;;;;;;6.43;0.80;;;5.40;99.90;;;;;;5024946;28;20062;-35
2024/01/31 00:07:24;;;;;;;3.50;0.77;;;5.30;99.90;;;;;;5029743;28;20060;-35
2024/01/31 00:09:50;;;;;;;3.70;0.50;;;5.30;99.90;;;;;;5027757;28;20442;-35
2024/01/31 00:12:17;;;;;;;6.85;0.55;;;5.30;99.90;;;;;;5025345;28;20418;-37
2024/01/31 00:14:45;;;;;;;5.13;0.70;;;5.30;99.90;;;;;;5027094;28;20482;-35
2024/01/31 00:17:11;;;;;;;4.43;0.80;;;5.30;99.90;;;;;;5022669;28;20057;-35
2024/01/31 00:19:37;;;;;;;6.57;0.50;;;5.30;99.90;;;;;;5028687;28;20099;-35
2024/01/31 00:22:03;;;;;;;3.83;0.43;;;5.30;99.90;;;;;;5022294;28;20054;-35
2024/01/31 00:24:28;;;;;;;5.28;0.50;;;5.20;99.90;;;;;;5027401;28;20056;-36
2024/01/31 00:26:54;;;;;;;2.90;0.40;;;5.20;99.90;;;;;;5024853;28;20102;-35
2024/01/31 00:29:21;;;;;;;2.53;0.30;;;5.20;99.90;;;;;;5023743;28;20081;-37
2024/01/31 00:31:46;;;;;;;5.10;0.70;;;5.20;99.90;;;;;;5026796;28;20568;-37
2024/01/31 00:34:12;;;;;;;1.92;0.22;;;5.20;99.90;;;;;;5026194;28;20053;-35
2024/01/31 00:36:38;;;;;;;2.53;0.30;;;5.20;99.90;;;;;;5027416;28;20402;-35
2024/01/31 00:39:05;;;;;;;4.15;0.35;;;5.20;99.90;;;;;;5028692;28;20045;-36
2024/01/31 00:41:31;;;;;;;3.65;0.32;;;5.20;99.90;;;;;;5027174;28;21504;-36
2024/01/31 00:43:57;;;;;;;3.65;0.40;;;5.20;99.90;;;;;;5025601;28;20053;-36
2024/01/31 00:46:23;;;;;;;3.13;0.50;;;5.20;99.90;;;;;;5026587;28;20482;-36
2024/01/31 00:48:48;;;;;;;2.95;0.40;;;5.20;99.90;;;;;;5031898;28;20049;-36
2024/01/31 00:51:14;;;;;;;2.67;0.20;;;5.20;99.90;;;;;;5023725;28;20099;-34
2024/01/31 00:53:40;;;;;;;3.22;0.30;;;5.20;99.90;;;;;;5021352;28;20037;-35
2024/01/31 00:56:06;;;;;;;1.38;0.32;;;5.20;99.90;;;;;;5021799;28;20091;-34
2024/01/31 00:58:34;;;;;;;2.53;0.22;;;5.10;99.90;;;;;;5025962;28;20060;-35
2024/01/31 01:01:00;;;;;;;2.45;0.20;;;5.20;99.90;;;;;;5023208;28;20560;-35
2024/01/31 01:03:26;;;;;;;2.53;0.40;;;5.10;99.90;;;;;;5029019;28;20053;-35
2024/01/31 01:05:51;;;;;;;3.75;0.60;;;5.10;99.90;;;;;;5025240;28;20470;-36
2024/01/31 01:08:18;;;;;;;4.07;0.70;;;5.20;99.90;;;;;;5024696;28;20057;-35
2024/01/31 01:10:44;;;;;;;2.30;0.30;;;5.20;99.90;;;;;;5026742;28;20076;-35
2024/01/31 01:13:09;;;;;;;3.35;0.40;;;5.20;99.90;;;;;;5026580;28;20497;-35
2024/01/31 01:15:35;;;;;;;5.43;0.50;;;5.20;99.90;;;;;;5026290;28;20041;-35
2024/01/31 01:18:01;;;;;;;4.07;0.73;;;5.20;99.90;;;;;;5022739;28;20049;-35
2024/01/31 01:20:27;;;;;;;3.33;0.40;;;5.20;99.90;;;;;;5029400;28;20103;-36
2024/01/31 01:22:55;;;;;;;3.50;0.50;;;5.20;99.90;;;;;;5006848;28;20045;-36
2024/01/31 01:25:20;;;;;;;4.10;0.40;;;5.10;99.90;;;;;;5024675;28;20473;-35
2024/01/31 01:27:50;;;;;;;3.67;0.40;;;5.10;99.90;;;;;;5010495;28;20052;-35
2024/01/31 01:30:21;;;;;;;5.07;0.40;;;5.10;99.90;;;;;;5007884;28;20680;-35
2024/01/31 01:32:46;;;;;;;3.60;0.50;;;5.10;99.90;;;;;;5024714;28;20052;-35
2024/01/31 01:35:13;;;;;;;2.80;0.38;;;5.00;99.90;;;;;;5021584;28;20053;-35
2024/01/31 01:37:40;;;;;;;3.58;0.40;;;5.00;99.90;;;;;;5021003;28;20548;-35
2024/01/31 01:40:07;;;;;;;2.83;0.30;;;4.90;99.90;;;;;;5023898;28;20128;-35
2024/01/31 01:42:39;;;;;;;2.58;0.40;;;4.90;99.90;;;;;;5016939;28;20109;-35
2024/01/31 01:45:05;;;;;;;4.35;0.30;;;4.90;99.90;;;;;;5007756;28;20065;-35
2024/01/31 01:47:31;;;;;;;3.53;0.28;;;4.90;99.90;;;;;;5023888;28;20698;-36
2024/01/31 01:49:57;;;;;;;5.35;0.50;;;4.90;99.90;;;;;;5027271;28;20052;-35
2024/01/31 01:52:24;;;;;;;3.50;0.50;;;4.90;99.90;;;;;;5028085;28;20045;-35
2024/01/31 01:54:50;;;;;;;5.22;0.50;;;4.80;99.90;;;;;;5024144;28;20497;-41
2024/01/31 01:57:16;;;;;;;3.40;0.70;;;4.80;99.90;;;;;;5026563;28;20053;-35
2024/01/31 01:59:42;;;;;;;3.63;0.40;;;4.90;99.90;;;;;;5021091;28;20045;-35
2024/01/31 02:02:08;;;;;;;3.72;0.60;;;4.90;99.90;;;;;;5025962;28;20449;-40
2024/01/31 02:04:34;;;;;;;3.15;0.40;;;4.90;99.90;;;;;;5020896;28;20042;-35
2024/01/31 02:07:01;;;;;;;3.03;0.30;;;4.90;99.90;;;;;;5025064;28;20401;-35
2024/01/31 02:09:28;;;;;;;3.05;0.40;;;4.90;99.90;;;;;;5021089;28;20116;-36
2024/01/31 02:11:53;;;;;;;2.75;0.30;;;4.90;99.90;;;;;;5023813;28;20099;-36
2024/01/31 02:14:19;;;;;;;4.60;0.40;;;4.90;99.90;;;;;;5026582;28;20053;-36
2024/01/31 02:16:45;;;;;;;5.78;1.13;;;4.90;99.90;;;;;;5010657;28;20108;-35
2024/01/31 02:19:11;;;;;;;3.25;0.40;;;4.80;99.90;;;;;;5025701;28;20052;-36
2024/01/31 02:21:41;;;;;;;3.10;0.50;;;4.80;99.90;;;;;;5022369;28;20140;-35
2024/01/31 02:24:07;;;;;;;3.58;0.50;;;4.90;99.90;;;;;;5023492;28;20080;-35
2024/01/31 02:26:33;;;;;;;4.03;0.50;;;4.80;99.90;;;;;;5025500;28;20498;-36
2024/01/31 02:28:59;;;;;;;4.30;0.35;;;4.90;99.90;;;;;;5025731;28;20186;-37
2024/01/31 02:31:25;;;;;;;6.97;0.52;;;4.90;99.90;;;;;;5026449;28;20724;-35
2024/01/31 02:33:50;;;;;;;5.28;0.63;;;4.90;99.90;;;;;;5022771;28;20048;-37
2024/01/31 02:36:16;;;;;;;5.43;0.60;;;4.90;99.90;;;;;;5017853;28;20395;-35
2024/01/31 02:38:42;;;;;;;5.25;0.50;;;4.90;99.90;;;;;;5023144;28;20499;-35
2024/01/31 02:41:08;;;;;;;3.88;0.50;;;4.90;99.90;;;;;;5006253;28;20049;-35
2024/01/31 02:43:33;;;;;;;2.00;0.38;;;4.90;99.90;;;;;;5024270;28;20383;-35
2024/01/31 02:45:59;;;;;;;5.97;0.60;;;4.90;99.90;;;;;;5024426;28;20050;-36
2024/01/31 02:48:25;;;;;;;6.70;0.60;;;5.00;99.90;;;;;;5024329;28;20052;-35
2024/01/31 02:50:50;;;;;;;3.30;0.50;;;4.90;99.90;;;;;;5024329;28;20418;-35
2024/01/31 02:53:16;;;;;;;3.00;0.50;;;5.00;99.90;;;;;;5023817;28;20085;-35
2024/01/31 02:55:42;;;;;;;2.70;0.38;;;4.90;99.90;;;;;;5026813;28;20050;-35
2024/01/31 02:58:08;;;;;;;4.85;0.50;;;4.90;99.90;;;;;;5023524;28;20561;-34
2024/01/31 03:00:34;;;;;;;4.03;0.52;;;4.90;99.90;;;;;;5028511;28;20053;-35
2024/01/31 03:02:59;;;;;;;3.25;0.57;;;4.90;99.90;;;;;;5008784;28;20071;-35
2024/01/31 03:05:25;;;;;;;2.47;0.40;;;4.90;99.90;;;;;;5023978;28;20065;-41
2024/01/31 03:07:51;;;;;;;3.15;0.50;;;4.90;99.90;;;;;;4995870;28;20048;-35
2024/01/31 03:10:16;;;;;;;5.22;0.40;;;4.90;99.90;;;;;;5026349;28;20151;-40
2024/01/31 03:12:42;;;;;;;3.17;0.50;;;4.90;99.90;;;;;;5028929;28;20064;-34
2024/01/31 03:15:08;;;;;;;4.72;0.50;;;4.90;99.90;;;;;;5011310;28;20111;-35
2024/01/31 03:17:35;;;;;;;3.33;0.40;;;4.90;99.90;;;;;;5029791;28;20554;-35
2024/01/31 03:20:03;;;;;;;3.45;0.30;;;4.90;99.90;;;;;;5030605;28;20050;-35
2024/01/31 03:22:30;;;;;;;2.70;0.40;;;4.90;99.90;;;;;;5029270;28;20068;-35
2024/01/31 03:24:55;;;;;;;6.53;0.45;;;4.90;99.90;;;;;;5029634;28;20105;-35
2024/01/31 03:27:21;;;;;;;4.60;0.50;;;5.00;99.90;;;;;;5026887;28;20456;-34
2024/01/31 03:29:47;;;;;;;5.15;0.40;;;5.00;99.90;;;;;;5025656;28;20057;-35
2024/01/31 03:32:12;;;;;;;5.43;0.40;;;4.90;99.90;;;;;;5028291;28;20060;-35
2024/01/31 03:34:38;;;;;;;4.80;0.65;;;4.90;99.90;;;;;;5026715;28;20057;-35
2024/01/31 03:37:05;;;;;;;5.70;0.70;;;4.90;99.90;;;;;;5028323;28;20152;-35
2024/01/31 03:39:33;;;;;;;4.68;0.43;;;5.00;99.90;;;;;;5028496;28;20053;-35
2024/01/31 03:41:59;;;;;;;5.97;0.50;;;5.00;99.90;;;;;;5027581;28;20049;-36
2024/01/31 03:44:25;;;;;;;4.70;0.70;;;5.00;99.90;;;;;;5024958;28;20057;-39
2024/01/31 03:46:51;;;;;;;4.63;0.63;;;5.00;99.90;;;;;;5007920;28;20061;-36
2024/01/31 03:49:16;;;;;;;5.85;0.40;;;4.90;99.90;;;;;;5028183;28;20063;-35
2024/01/31 03:51:42;;;;;;;4.15;0.55;;;4.90;99.90;;;;;;5025984;28;20171;-37
2024/01/31 03:54:08;;;;;;;4.07;0.40;;;4.90;99.90;;;;;;5023952;28;20044;-35
2024/01/31 03:56:34;;;;;;;2.70;0.50;;;4.90;99.90;;;;;;5025488;28;20105;-35
2024/01/31 03:58:59;;;;;;;5.07;0.68;;;5.00;99.90;;;;;;5024947;28;20103;-34
2024/01/31 04:01:25;;;;;;;4.72;0.47;;;5.00;99.90;;;;;;5022399;28;20148;-35
2024/01/31 04:03:51;;;;;;;3.85;0.60;;;5.00;99.90;;;;;;4992284;28;20222;-35
2024/01/31 04:06:17;;;;;;;6.97;0.70;;;5.00;99.90;;;;;;5026716;28;20053;-34
2024/01/31 04:08:43;;;;;;;4.28;0.80;;;5.00;99.90;;;;;;5029999;28;20490;-35
2024/01/31 04:11:08;;;;;;;4.80;0.77;;;5.00;99.90;;;;;;5006882;28;20049;-35
2024/01/31 04:13:34;;;;;;;2.80;0.60;;;5.00;99.90;;;;;;5024048;28;20414;-35
2024/01/31 04:16:00;;;;;;;4.35;0.90;;;5.00;99.90;;;;;;5025486;28;20203;-35
2024/01/31 04:18:30;;;;;;;5.63;0.90;;;5.00;99.90;;;;;;5026415;28;20141;-36
2024/01/31 04:20:58;;;;;;;8.68;1.10;;;4.90;99.90;;;;;;4986786;28;20072;-35
2024/01/31 04:23:24;;;;;;;4.55;0.80;;;5.00;99.90;;;;;;5024549;28;21143;-37
2024/01/31 04:25:50;;;;;;;5.97;0.80;;;4.90;99.90;;;;;;5005633;28;20133;-35
2024/01/31 04:28:16;;;;;;;2.42;0.90;;;5.00;99.90;;;;;;5020362;28;20057;-35
2024/01/31 04:30:41;;;;;;;7.05;0.95;;;4.90;99.90;;;;;;5025588;28;20077;-35
2024/01/31 04:33:07;;;;;;;5.68;1.13;;;4.90;99.90;;;;;;5026991;28;20211;-35
2024/01/31 04:35:33;;;;;;;4.80;0.95;;;4.90;99.90;;;;;;5023273;28;20417;-35
2024/01/31 04:37:59;;;;;;;6.28;1.38;;;4.90;99.90;;;;;;5026043;28;20583;-35
2024/01/31 04:40:24;;;;;;;8.10;1.48;;;4.90;99.90;;;;;;5008661;28;20437;-36
2024/01/31 04:42:50;;;;;;;5.88;1.35;;;4.90;99.90;;;;;;5026758;28;20046;-35
2024/01/31 04:45:16;;;;;;;6.65;1.40;;;4.90;99.90;;;;;;5023380;28;20049;-36
2024/01/31 04:47:41;;;;;;;6.32;1.80;;;4.90;99.90;;;;;;5024446;28;20388;-35
2024/01/31 04:50:07;;;;;;;7.57;2.10;;;4.90;99.90;;;;;;5026083;28;20057;-35
2024/01/31 04:52:33;;;;;;;9.25;2.05;;;4.90;99.90;;;;;;5025340;28;20410;-35
2024/01/31 04:54:59;;;;;;;9.25;2.20;;;4.90;99.90;;;;;;5025470;28;20052;-36
2024/01/31 04:57:25;;;;;;;9.10;2.35;;;4.90;99.90;;;;;;5022178;28;21629;-35
2024/01/31 04:59:50;;;;;;;11.43;2.22;;;4.90;99.90;;;;;;5025341;28;20679;-42
2024/01/31 05:02:16;;;;;;;6.95;2.08;;;4.90;99.90;;;;;;5005868;28;20422;-35
2024/01/31 05:04:42;;;;;;;7.80;2.95;;;4.90;99.90;;;;;;5006532;28;20041;-36
2024/01/31 05:07:07;;;;;;;7.93;2.70;;;4.90;99.90;;;;;;5023973;28;20449;-36
2024/01/31 05:09:33;;;;;;;9.80;2.40;;;4.90;99.90;;;;;;5024610;28;20068;-35
2024/01/31 05:11:59;;;;;;;7.28;2.08;;;4.90;99.90;;;;;;5008395;28;20053;-35
2024/01/31 05:14:25;;;;;;;7.15;2.70;;;4.90;99.90;;;;;;5026203;28;20052;-35
2024/01/31 05:16:50;;;;;;;7.25;2.42;;;4.90;99.90;;;;;;5024858;28;20057;-35
2024/01/31 05:19:16;;;;;;;7.90;2.65;;;4.90;99.90;;;;;;5025098;28;20083;-35
2024/01/31 05:21:49;;;;;;;6.50;2.67;;;4.90;99.90;;;;;;5001225;28;20042;-36
2024/01/31 05:24:15;;;;;;;7.28;2.47;;;4.90;99.90;;;;;;5023888;28;20128;-37
2024/01/31 05:26:43;;;;;;;7.95;2.65;;;4.90;99.90;;;;;;5017926;28;20053;-35
2024/01/31 05:29:09;;;;;;;9.45;3.20;;;4.90;99.90;;;;;;5026362;28;20064;-36
2024/01/31 05:31:35;;;;;;;7.32;2.78;;;4.90;99.90;;;;;;5028137;28;20049;-36
2024/01/31 05:34:01;;;;;;;9.32;2.60;;;4.90;99.90;;;;;;5023035;28;20049;-35
2024/01/31 05:36:27;;;;;;;7.13;2.50;;;4.90;99.90;;;;;;5006049;28;20127;-37
2024/01/31 05:38:53;;;;;;;6.72;2.10;;;4.90;99.90;;;;;;5022664;28;20616;-41
2024/01/31 05:41:18;;;;;;;5.50;2.50;;;4.90;99.90;;;;;;5023397;28;20057;-44
2024/01/31 05:43:45;;;;;;;6.45;2.20;;;4.90;99.90;;;;;;5027052;28;20053;-35
2024/01/31 05:46:11;;;;;;;6.82;2.17;;;4.90;99.90;;;;;;5022923;28;20072;-36
2024/01/31 05:48:36;;;;;;;6.82;2.30;;;4.90;99.90;;;;;;5027461;28;20081;-35
2024/01/31 05:51:02;;;;;;;5.93;2.10;;;4.90;99.90;;;;;;5027210;28;20684;-35
2024/01/31 05:53:28;;;;;;;3.92;1.83;;;4.80;99.90;;;;;;5024968;28;20193;-34
2024/01/31 05:55:53;;;;;;;4.60;1.60;;;4.80;99.90;;;;;;5022320;28;20410;-33
2024/01/31 05:58:19;;;;;;;5.05;1.33;;;4.80;99.90;;;;;;5020708;28;20065;-34
2024/01/31 06:00:46;;;;;;;5.78;1.55;;;4.80;99.90;;;;;;5025056;28;20048;-34
2024/01/31 06:03:12;;;;;;;3.95;1.10;;;4.90;99.90;;;;;;5028094;28;20046;-34
2024/01/31 06:05:38;;;;;;;4.55;1.52;;;4.90;99.90;;;;;;5023336;28;20049;-35
2024/01/31 06:08:04;;;;;;;5.35;1.92;;;4.90;99.90;;;;;;5024478;28;20061;-35
2024/01/31 06:10:29;;;;;;;6.20;1.60;;;4.90;99.90;;;;;;5024265;28;20111;-35
2024/01/31 06:12:55;;;;;;;4.03;1.60;;;4.90;99.90;;;;;;5021690;28;20059;-35
2024/01/31 06:15:21;;;;;;;6.10;1.95;;;4.90;99.90;;;;;;5021718;28;20080;-37
2024/01/31 06:17:46;;;;;;;7.55;2.60;;;4.90;99.90;;;;;;5024377;28;20516;-35
2024/01/31 06:20:12;;;;;;;5.32;2.03;;;4.90;99.90;;;;;;5025322;28;20053;-35
2024/01/31 06:22:38;;;;;;;5.90;2.03;;;5.00;99.90;;;;;;5022534;28;20107;-36
2024/01/31 06:25:04;;;;;;;4.90;1.80;;;5.00;99.90;;;;;;5025730;28;20409;-35
2024/01/31 06:27:30;;;;;;;6.47;2.47;;;5.00;99.90;;;;;;5021577;28;20049;-35
2024/01/31 06:29:56;;;;;;;6.32;2.40;;;5.00;99.90;;;;;;5027216;28;20057;-35
2024/01/31 06:32:30;;;;;;;8.45;2.80;;;5.00;99.90;;;;;;5023441;28;20414;-35
2024/01/31 06:34:56;;;;;;;8.23;2.78;;;5.00;99.90;;;;;;5032123;28;20060;-35
2024/01/31 06:37:21;;;;;;;9.35;3.58;;;4.90;99.90;;;;;;5026708;28;20418;-34
2024/01/31 06:39:47;;;;;;;10.07;3.35;;;4.80;99.90;;;;;;5026444;28;20061;-34
2024/01/31 06:42:13;;;;;;;7.30;3.25;;;4.90;99.90;;;;;;5026405;28;20076;-34
2024/01/31 06:44:38;;;;;;;8.05;3.10;;;4.80;99.90;;;;;;5030589;28;20041;-34
2024/01/31 06:47:05;;;;;;;6.72;3.55;;;4.80;99.90;;;;;;5028995;28;20160;-34
2024/01/31 06:49:31;;;;;;;7.45;3.40;;;4.80;99.90;;;;;;5028565;28;20065;-34
2024/01/31 06:51:57;;;;;;;6.32;3.50;;;4.80;99.90;;;;;;5025259;28;20056;-35
2024/01/31 06:54:23;;;;;;;7.25;3.55;;;4.80;99.90;;;;;;5023652;28;20049;-35
2024/01/31 06:56:49;;;;;;;7.80;3.63;;;4.80;99.90;;;;;;5025953;28;20057;-35
2024/01/31 06:59:14;;;;;;;7.38;3.53;;;4.80;99.90;;;;;;5018438;28;20054;-35
2024/01/31 07:01:40;;;;;;;8.60;3.70;;;4.80;99.90;;;;;;5027637;28;20045;-34
2024/01/31 07:04:06;;;;;;;6.97;2.90;;;4.80;99.90;;;;;;5022390;28;20061;-34
2024/01/31 07:06:31;;;;;;;8.35;2.88;;;4.80;99.90;;;;;;5038398;28;20596;-35
2024/01/31 07:08:57;;;;;;;5.18;3.25;;;4.90;99.90;;;;;;5007262;28;20057;-35
2024/01/31 07:11:23;;;;;;;6.20;2.97;;;4.90;99.90;;;;;;5025922;28;20053;-35
2024/01/31 07:13:48;;;;;;;5.78;2.63;;;4.90;99.90;;;;;;5018378;28;20049;-35
2024/01/31 07:16:14;;;;;;;6.82;2.88;;;4.90;99.90;;;;;;5027917;28;20054;-35
2024/01/31 07:18:41;;;;;;;6.88;3.60;;;4.90;99.90;;;;;;5032116;28;20048;-35
2024/01/31 07:21:10;;;;;;;8.52;3.22;;;4.90;99.90;;;;;;5031334;28;20490;-35
2024/01/31 07:23:36;;;;;;;9.63;3.10;;;4.90;99.90;;;;;;5026583;28;20409;-35
2024/01/31 07:26:02;;;;;;;5.28;2.85;;;4.90;99.90;;;;;;5024628;28;21766;-35
2024/01/31 07:28:29;;;;;;;8.77;3.03;;;4.90;99.90;;;;;;5026096;28;20049;-35
2024/01/31 07:30:55;;;;;;;4.65;2.65;;;4.90;99.90;;;;;;5018581;28;20057;-35
2024/01/31 07:33:20;;;;;;;8.52;3.00;;;4.90;99.90;;;;;;5002371;28;20045;-35
2024/01/31 07:35:46;;;;;;;7.55;2.70;;;4.90;99.90;;;;;;5021356;28;20510;-35
2024/01/31 07:38:12;;;;;;;7.70;3.00;;;4.90;99.90;;;;;;5027824;28;20045;-35
2024/01/31 07:40:38;;;;;;;9.38;2.97;;;4.90;99.90;;;;;;5012330;28;20045;-35
2024/01/31 07:43:04;;;;;;;6.45;2.03;;;4.90;99.90;;;;;;5024396;28;20125;-35
2024/01/31 07:45:30;;;;;;;6.75;2.33;;;4.90;99.90;;;;;;5022663;28;20057;-35
2024/01/31 07:47:58;;;;;;;7.28;2.25;;;4.90;99.90;;;;;;5021941;28;20107;-34
2024/01/31 07:50:24;;;;;;;6.90;2.70;;;5.00;99.90;;;;;;5025253;28;20066;-35
2024/01/31 07:52:50;;;;;;;5.65;2.45;;;5.00;99.90;;;;;;5018595;28;20048;-34
2024/01/31 07:55:23;;;;;;;6.47;2.20;;;5.00;99.90;;;;;;5017493;28;21152;-34
2024/01/31 07:57:49;;;;;;;4.25;2.17;;;5.00;99.90;;;;;;5005067;28;20071;-34
2024/01/31 08:00:15;;;;;;;4.60;2.05;;;5.00;99.90;;;;;;5023118;28;20049;-34
2024/01/31 08:02:41;;;;;;;6.40;1.85;;;5.00;99.90;;;;;;5008528;28;20647;-35
2024/01/31 08:05:06;;;;;;;5.43;1.40;;;5.00;99.90;;;;;;5024664;28;20071;-34
2024/01/31 08:07:35;;;;;;;3.75;1.27;;;5.00;99.90;;;;;;5025283;28;20041;-35
2024/01/31 08:10:03;;;;;;;4.47;1.50;;;5.10;99.90;;;;;;5007558;28;20057;-35
2024/01/31 08:12:29;;;;;;;4.25;1.60;;;5.10;99.90;;;;;;5021562;28;20065;-35
2024/01/31 08:14:55;;;;;;;5.63;1.88;;;5.20;99.90;;;;;;5026071;28;20411;-34
2024/01/31 08:17:24;;;;;;;5.75;2.50;;;5.20;99.90;;;;;;5023777;28;20399;-35
2024/01/31 08:19:49;;;;;;;7.32;2.47;;;5.20;99.90;;;;;;5026321;28;20518;-35
2024/01/31 08:22:15;;;;;;;7.05;2.30;;;5.30;99.90;;;;;;5026952;28;20076;-35
2024/01/31 08:24:41;;;;;;;8.63;2.28;;;5.30;99.90;;;;;;5024257;28;20060;-35
2024/01/31 08:27:07;;;;;;;6.20;2.33;;;5.30;99.90;;;;;;5006698;28;20080;-34
2024/01/31 08:29:33;;;;;;;5.70;2.22;;;5.30;99.90;;;;;;5022349;28;20049;-34
2024/01/31 08:31:59;;;;;;;3.28;1.83;;;5.30;99.90;;;;;;5023196;28;20053;-35
2024/01/31 08:34:24;;;;;;;4.00;1.70;;;5.40;99.90;;;;;;5024136;28;20049;-35
2024/01/31 08:36:50;;;;;;;2.20;1.40;;;5.40;99.90;;;;;;5015736;28;20053;-35
2024/01/31 08:39:16;;;;;;;3.85;1.98;;;5.40;99.90;;;;;;5019254;28;20057;-35
2024/01/31 08:41:44;;;;;;;3.33;2.05;;;5.40;99.90;;;;;;5025054;28;20513;-35
2024/01/31 08:44:09;;;;;;;6.03;1.90;;;5.40;99.90;;;;;;5025230;28;22911;-35
2024/01/31 08:46:35;;;;;;;4.68;1.73;;;5.40;99.90;;;;;;5025596;28;20057;-35
2024/01/31 08:49:01;;;;;;;2.67;1.50;;;5.40;99.90;;;;;;5024799;28;20403;-35
2024/01/31 08:51:27;;;;;;;5.55;1.85;;;5.40;99.90;;;;;;5024731;28;20103;-35
2024/01/31 08:53:52;;;;;;;3.78;1.60;;;5.40;99.90;;;;;;5019202;28;20140;-35
2024/01/31 08:56:18;;;;;;;5.30;1.90;;;5.40;99.90;;;;;;5018214;28;20065;-35
2024/01/31 08:58:44;;;;;;;6.13;1.98;;;5.40;99.90;;;;;;5023918;28;20045;-35
2024/01/31 09:01:09;;;;;;;4.50;1.98;;;5.40;99.90;;;;;;5023129;28;20049;-35
2024/01/31 09:03:35;;;;;;;4.43;2.00;;;5.30;99.90;;;;;;5023968;28;20128;-35
2024/01/31 09:06:01;;;;;;;4.50;1.98;;;5.30;99.90;;;;;;5023578;28;20410;-34
2024/01/31 09:08:27;;;;;;;5.50;1.83;;;5.30;99.90;;;;;;5024448;28;20501;-35
2024/01/31 09:10:53;;;;;;;5.47;2.28;;;5.40;99.90;;;;;;5019305;28;20053;-35
2024/01/31 09:13:19;;;;;;;5.38;1.80;;;5.40;99.90;;;;;;5023958;28;20088;-35
2024/01/31 09:15:44;;;;;;;4.68;2.08;;;5.40;99.90;;;;;;5024477;28;20580;-35
2024/01/31 09:18:10;;;;;;;6.88;2.60;;;5.50;99.90;;;;;;5026646;28;20102;-35
2024/01/31 09:20:36;;;;;;;5.90;2.30;;;5.40;99.90;;;;;;5024100;28;20471;-34
2024/01/31 09:23:02;;;;;;;5.07;2.58;;;5.50;99.90;;;;;;5007048;28;20045;-35
2024/01/31 09:25:28;;;;;;;4.90;2.30;;;5.50;99.90;;;;;;5026059;28;20100;-34
2024/01/31 09:27:54;;;;;;;4.75;2.15;;;5.60;99.90;;;;;;5024687;28;20069;-35
2024/01/31 09:30:20;;;;;;;4.78;2.00;;;5.60;99.90;;;;;;5024207;28;20057;-35
2024/01/31 09:32:45;;;;;;;4.70;2.22;;;5.60;99.90;;;;;;5003364;28;20053;-35
2024/01/31 09:35:11;;;;;;;3.90;2.17;;;5.70;99.90;;;;;;5026072;28;20792;-35
2024/01/31 09:37:37;;;;;;;7.15;2.35;;;5.70;99.90;;;;;;5025979;28;20054;-35
2024/01/31 09:40:03;;;;;;;5.30;2.33;;;5.70;99.90;;;;;;5022932;28;20421;-34
2024/01/31 09:42:29;;;;;;;4.88;2.92;;;5.70;99.90;;;;;;5010041;28;20057;-35
2024/01/31 09:44:58;;;;;;;5.72;2.67;;;5.70;99.90;;;;;;5025917;28;20085;-34
2024/01/31 09:47:27;;;;;;;6.10;2.65;;;5.70;99.90;;;;;;5020621;28;20045;-35
2024/01/31 09:49:56;;;;;;;4.63;2.25;;;5.70;99.90;;;;;;5014123;28;20064;-34
2024/01/31 09:52:28;;;;;;;4.70;2.30;;;5.70;99.90;;;;;;5021364;28;20111;-34
2024/01/31 09:55:01;;;;;;;6.18;2.70;;;5.70;99.90;;;;;;5020083;28;20067;-34
2024/01/31 09:57:27;;;;;;;;;;;5.80;99.90;;;;;;5020512;28;20103;-34
2024/01/31 09:59:56;;;;;;;4.53;2.30;;;5.80;99.90;;;;;;5022541;28;20076;-35
2024/01/31 10:02:22;;;;;;;5.45;2.83;;;5.80;99.90;;;;;;5012566;28;20049;-34
2024/01/31 10:04:51;;;;;;;5.80;2.47;;;5.80;99.90;;;;;;4996188;28;20055;-34
2024/01/31 10:07:30;;;;;;;5.40;2.83;;;5.80;99.90;;;;;;5025295;28;20061;-34
2024/01/31 10:09:56;;;;;;;5.60;2.90;;;5.90;99.90;;;;;;5026560;28;20433;-34
2024/01/31 10:12:23;;;;;;;6.53;3.13;;;5.90;99.90;;;;;;5027039;28;20045;-34
2024/01/31 10:14:51;;;;;;;6.78;3.40;;;5.90;99.90;;;;;;5028190;28;20589;-33
2024/01/31 10:17:20;;;;;;;5.22;2.85;;;5.90;99.90;;;;;;5025410;28;20132;-34
2024/01/31 10:19:48;;;;;;;5.95;3.05;;;5.90;99.90;;;;;;5027420;28;20052;-34
2024/01/31 10:22:14;;;;;;;4.72;3.00;;;5.90;99.90;;;;;;5022625;28;20065;-35
2024/01/31 10:24:39;;;;;;;5.40;3.30;;;5.90;99.90;;;;;;5025551;28;20050;-34
2024/01/31 10:27:07;;;;;;;6.10;3.90;;;5.90;99.90;;;;;;5026014;28;20122;-34
2024/01/31 10:29:33;;;;;;;8.02;4.28;;;5.90;99.90;;;;;;5028973;28;20106;-34
2024/01/31 10:32:03;;;;;;;6.43;4.07;;;5.90;99.90;;;;;;5027385;28;20065;-35
2024/01/31 10:34:29;;;;;;;7.00;4.03;;;6.00;99.90;;;;;;5024801;28;20049;-35
2024/01/31 10:36:55;;;;;;;5.90;4.20;;;6.00;99.90;;;;;;5029944;28;20127;-35
2024/01/31 10:39:21;;;;;;;7.55;4.57;;;6.00;99.90;;;;;;5012488;28;20046;-35
2024/01/31 10:41:48;;;;;;;7.30;4.75;;;6.00;99.90;;;;;;5029018;28;20055;-34
2024/01/31 10:44:14;;;;;;;10.15;5.05;;;6.00;99.90;;;;;;5020620;28;20037;-34
2024/01/31 10:46:42;;;;;;;8.63;5.47;;;6.00;99.90;;;;;;5011765;28;20045;-35
2024/01/31 10:49:08;;;;;;;7.85;5.60;;;6.00;99.90;;;;;;5010690;28;20072;-36
2024/01/31 10:51:35;;;;;;;10.07;6.00;;;6.00;99.90;;;;;;5025250;28;20157;-35
2024/01/31 10:54:04;;;;;;;9.48;5.72;;;6.00;99.90;;;;;;5024160;28;20049;-34
2024/01/31 10:56:30;;;;;;;9.85;5.50;;;6.00;99.90;;;;;;5029510;28;20460;-35
2024/01/31 10:58:59;;;;;;;7.25;5.05;;;6.00;99.90;;;;;;5029797;28;20053;-35
2024/01/31 11:01:29;;;;;;;6.53;4.70;;;6.00;99.90;;;;;;5022150;28;20057;-35
2024/01/31 11:03:55;;;;;;;8.45;4.80;;;6.00;99.90;;;;;;5028148;28;20060;-35
2024/01/31 11:06:24;;;;;;;7.70;5.57;;;6.10;99.90;;;;;;5024600;28;20045;-34
2024/01/31 11:08:50;;;;;;;7.38;4.53;;;6.10;99.90;;;;;;5026774;28;20049;-35
2024/01/31 11:11:18;;;;;;;9.70;4.53;;;6.10;99.90;;;;;;5025806;28;20053;-34
2024/01/31 11:13:44;;;;;;;10.82;4.65;;;6.20;99.90;;;;;;5025046;28;20148;-36
2024/01/31 11:16:09;;;;;;;6.20;4.30;;;6.20;99.90;;;;;;5025599;28;20497;-35
2024/01/31 11:18:36;;;;;;;5.97;3.80;;;6.20;99.90;;;;;;5025626;28;20434;-36
2024/01/31 11:21:06;;;;;;;7.47;4.00;;;6.30;99.90;;;;;;5025637;28;20083;-35
2024/01/31 11:23:33;;;;;;;9.15;3.53;;;6.30;99.90;;;;;;5021573;28;20497;-35
2024/01/31 11:26:01;;;;;;;6.55;4.10;;;6.40;99.90;;;;;;5025143;28;20060;-35
2024/01/31 11:28:27;;;;;;;6.63;4.53;;;6.40;99.90;;;;;;5022764;28;20045;-35
2024/01/31 11:30:54;;;;;;;6.90;4.68;;;6.50;99.90;;;;;;5021659;28;20053;-35
2024/01/31 11:33:20;;;;;;;7.78;4.97;;;6.50;99.90;;;;;;5017423;28;20049;-36
2024/01/31 11:35:47;;;;;;;7.45;4.47;;;6.60;99.90;;;;;;5016080;28;20644;-35
2024/01/31 11:38:17;;;;;;;6.75;4.30;;;6.60;99.90;;;;;;5020579;28;20049;-34
2024/01/31 11:40:43;;;;;;;6.57;4.55;;;6.70;99.90;;;;;;5028400;28;20076;-34
2024/01/31 11:43:09;;;;;;;6.35;3.80;;;6.70;99.90;;;;;;5021654;28;20069;-34
2024/01/31 11:45:35;;;;;;;7.15;4.10;;;6.70;99.90;;;;;;5023635;28;20037;-34
2024/01/31 11:48:00;;;;;;;6.93;3.75;;;6.70;99.90;;;;;;5028586;28;20056;-34
2024/01/31 11:50:27;;;;;;;7.38;4.20;;;6.70;99.90;;;;;;5025753;28;20177;-35
2024/01/31 11:52:54;;;;;;;6.75;3.75;;;6.80;99.90;;;;;;5027812;28;20076;-34
2024/01/31 11:55:23;;;;;;;7.07;4.60;;;6.80;99.90;;;;;;5024317;28;20064;-35
2024/01/31 11:57:50;;;;;;;5.90;3.53;;;6.80;99.90;;;;;;5027905;28;21099;-35
2024/01/31 12:00:17;;;;;;;6.18;3.88;;;6.80;99.90;;;;;;5027137;28;20199;-35
2024/01/31 12:02:46;;;;;;;7.72;4.30;;;6.80;99.90;;;;;;5025325;28;20533;-35
2024/01/31 12:05:12;;;;;;;6.97;4.53;;;6.80;99.90;;;;;;5030777;28;20053;-35
2024/01/31 12:07:38;;;;;;;7.45;4.60;;;6.80;99.90;;;;;;5028683;28;20056;-35
2024/01/31 12:10:06;;;;;;;7.20;5.18;;;6.80;99.90;;;;;;5026417;28;20060;-35
2024/01/31 12:12:34;;;;;;;7.68;4.78;;;6.80;99.90;;;;;;5007271;28;20055;-35
2024/01/31 12:15:00;;;;;;;8.90;5.63;;;6.80;99.90;;;;;;5023232;28;20053;-35
2024/01/31 12:17:27;;;;;;;7.95;5.35;;;6.90;99.90;;;;;;5024828;28;20176;-35
2024/01/31 12:20:08;;;;;;;9.63;5.93;;;6.90;99.90;;;;;;5021700;28;20468;-35
2024/01/31 12:22:34;;;;;;;9.05;5.93;;;6.90;99.90;;;;;;5022398;28;20051;-35
2024/01/31 12:25:01;;;;;;;10.60;6.78;;;6.90;99.90;;;;;;5027466;28;20060;-35
2024/01/31 12:27:27;;;;;;;8.00;5.82;;;6.90;99.90;;;;;;5017521;28;20182;-35
2024/01/31 12:29:53;;;;;;;9.95;5.53;;;6.90;99.90;;;;;;5027638;28;20050;-35
2024/01/31 12:32:18;;;;;;;7.90;5.25;;;6.80;99.90;;;;;;5023084;28;20223;-34
2024/01/31 12:34:44;;;;;;;8.63;5.40;;;6.90;99.90;;;;;;5026972;28;20084;-35
2024/01/31 12:37:10;;;;;;;7.07;4.90;;;6.90;99.90;;;;;;5030125;28;20107;-34
2024/01/31 12:39:35;;;;;;;9.30;4.47;;;6.90;99.90;;;;;;5020755;28;20052;-34
2024/01/31 12:42:03;;;;;;;7.22;4.20;;;6.90;99.90;;;;;;5024501;28;20060;-34
2024/01/31 12:44:29;;;;;;;9.85;4.40;;;6.90;99.90;;;;;;5031456;28;20512;-34
2024/01/31 12:46:56;;;;;;;6.30;4.32;;;6.90;99.90;;;;;;5022240;28;20069;-34
2024/01/31 12:49:21;;;;;;;6.18;4.40;;;6.90;99.90;;;;;;5028887;28;20048;-34
2024/01/31 12:51:49;;;;;;;6.70;4.75;;;6.90;99.90;;;;;;5024680;28;20482;-34